Time;durP1;ratioP1;P1;durP2;ratioP2;P2;SDS_P1;SDS_P2;PMS_P1;PMS_P2;Temp;Humidity;BMP_temperature;BMP_pressure;BME280_temperature;BME280_humidity;BME280_pressure;Samples;Min_cycle;Max_cycle;Signal;HPM_P1;HPM_P2
2024/04/08 00:00:51;;;;;;;3.40;1.90;;;;;;;;;;6101092;23;21081;-85
2024/04/08 00:03:36;;;;;;;;;;;;;;;;;;;;;
2024/04/08 00:06:06;;;;;;;2.40;1.80;;;;;;;;;;6128658;23;21027;-86
2024/04/08 00:08:38;;;;;;;5.43;2.30;;;;;;;;;;6099913;23;20408;-87
2024/04/08 00:14:12;;;;;;;3.87;2.10;;;;;;;;;;6087305;23;20418;-86
2024/04/08 00:16:44;;;;;;;3.60;2.63;;;;;;;;;;6104409;23;20421;-87
2024/04/08 00:19:23;;;;;;;3.30;2.10;;;;;;;;;;6102367;23;20403;-86
2024/04/08 00:22:03;;;;;;;5.13;2.10;;;;;;;;;;6106325;23;20453;-86
2024/04/08 00:24:39;;;;;;;3.23;2.27;;;;;;;;;;6107363;23;20776;-87
2024/04/08 00:27:09;;;;;;;4.27;2.20;;;;;;;;;;6128024;23;20449;-86
2024/04/08 00:29:45;;;;;;;6.10;2.30;;;;;;;;;;6105380;23;20441;-85
2024/04/08 00:32:16;;;;;;;2.77;2.13;;;;;;;;;;6131563;23;20418;-86
2024/04/08 00:34:49;;;;;;;3.50;2.20;;;;;;;;;;6108178;23;20410;-86
2024/04/08 00:37:20;;;;;;;7.83;3.27;;;;;;;;;;6109693;23;20403;-85
2024/04/08 00:39:50;;;;;;;4.27;2.63;;;;;;;;;;6119466;23;20403;-88
2024/04/08 00:42:23;;;;;;;4.33;2.70;;;;;;;;;;6125693;23;20490;-88
2024/04/08 00:44:54;;;;;;;6.37;2.70;;;;;;;;;;6124661;23;20501;-88
2024/04/08 00:47:42;;;;;;;2.90;2.40;;;;;;;;;;6169239;23;20414;-85
2024/04/08 00:50:11;;;;;;;3.73;2.50;;;;;;;;;;6109514;23;20402;-86
2024/04/08 00:52:45;;;;;;;3.57;2.50;;;;;;;;;;6113194;23;20426;-87
2024/04/08 00:55:12;;;;;;;2.60;2.20;;;;;;;;;;6110305;23;20503;-86
2024/04/08 00:57:39;;;;;;;3.60;2.30;;;;;;;;;;6109185;23;20406;-87
2024/04/08 01:00:37;;;;;;;7.63;2.50;;;;;;;;;;6136992;23;20405;-87
2024/04/08 01:03:10;;;;;;;3.53;2.17;;;;;;;;;;6161355;23;20446;-89
2024/04/08 01:05:39;;;;;;;4.53;2.20;;;;;;;;;;6160277;23;20442;-87
2024/04/08 01:08:09;;;;;;;3.73;3.07;;;;;;;;;;6161077;23;20476;-87
2024/04/08 01:10:48;;;;;;;5.27;2.70;;;;;;;;;;6161849;23;20475;-86
2024/04/08 01:13:17;;;;;;;3.80;2.07;;;;;;;;;;6138150;23;20445;-86
2024/04/08 01:15:51;;;;;;;3.60;2.70;;;;;;;;;;6145777;23;20417;-90
2024/04/08 01:18:20;;;;;;;4.10;2.43;;;;;;;;;;6178756;23;20466;-90
2024/04/08 01:20:49;;;;;;;5.90;3.27;;;;;;;;;;6156529;23;20458;-89
2024/04/08 01:23:32;;;;;;;3.10;2.50;;;;;;;;;;6156016;23;20490;-87
2024/04/08 01:26:10;;;;;;;4.03;2.60;;;;;;;;;;6179058;23;20502;-88
2024/04/08 01:28:50;;;;;;;5.03;3.50;;;;;;;;;;6095063;23;20471;-89
2024/04/08 01:31:24;;;;;;;4.03;3.30;;;;;;;;;;6093408;23;20512;-90
2024/04/08 01:33:51;;;;;;;6.57;3.17;;;;;;;;;;6094389;23;20467;-90
2024/04/08 01:36:33;;;;;;;5.30;3.43;;;;;;;;;;6092638;23;20444;-89
2024/04/08 01:39:09;;;;;;;8.63;3.63;;;;;;;;;;6093694;23;20479;-90
2024/04/08 01:41:39;;;;;;;4.43;2.97;;;;;;;;;;6092091;23;20505;-89
2024/04/08 01:44:06;;;;;;;4.17;3.57;;;;;;;;;;6091504;23;20467;-86
2024/04/08 01:46:37;;;;;;;8.37;4.63;;;;;;;;;;6084433;23;20405;-88
2024/04/08 01:49:07;;;;;;;9.13;3.10;;;;;;;;;;6084030;23;20463;-85
2024/04/08 01:51:33;;;;;;;3.73;3.00;;;;;;;;;;6080850;23;20457;-86
2024/04/08 01:54:14;;;;;;;4.97;3.60;;;;;;;;;;6082783;23;20408;-86
2024/04/08 01:56:49;;;;;;;5.53;3.00;;;;;;;;;;6070431;23;20411;-89
2024/04/08 01:59:40;;;;;;;4.43;3.00;;;;;;;;;;6093687;23;20406;-86
2024/04/08 02:05:10;;;;;;;5.10;3.10;;;;;;;;;;6149011;23;20478;-83
2024/04/08 02:07:36;;;;;;;5.63;2.83;;;;;;;;;;6126224;23;20402;-84
2024/04/08 02:10:19;;;;;;;4.50;3.53;;;;;;;;;;6125076;23;20418;-83
2024/04/08 02:12:52;;;;;;;3.17;2.90;;;;;;;;;;6124733;23;20426;-85
2024/04/08 02:15:24;;;;;;;6.73;3.27;;;;;;;;;;6123537;23;20403;-86
2024/04/08 02:17:54;;;;;;;3.70;3.10;;;;;;;;;;6124274;23;20407;-83
2024/04/08 02:20:26;;;;;;;6.90;3.40;;;;;;;;;;6125260;23;20411;-84
2024/04/08 02:23:15;;;;;;;7.13;3.73;;;;;;;;;;6135963;23;20744;-87
2024/04/08 02:25:48;;;;;;;5.90;3.37;;;;;;;;;;6147450;23;20452;-90
2024/04/08 02:28:31;;;;;;;9.60;6.73;;;;;;;;;;6151533;23;20518;-89
2024/04/08 02:31:07;;;;;;;6.80;3.50;;;;;;;;;;6152673;23;20494;-89
2024/04/08 02:33:40;;;;;;;4.80;3.40;;;;;;;;;;6152118;23;20466;-89
2024/04/08 02:39:51;;;;;;;;;;;;;;;;;;;;;
2024/04/08 02:42:29;;;;;;;4.97;3.53;;;;;;;;;;6153724;23;20423;-84
2024/04/08 02:45:07;;;;;;;5.43;3.63;;;;;;;;;;6130901;23;20802;-86
2024/04/08 02:47:43;;;;;;;6.23;3.70;;;;;;;;;;6129008;23;20407;-84
2024/04/08 02:50:11;;;;;;;6.47;3.90;;;;;;;;;;6126737;23;20407;-84
2024/04/08 02:52:57;;;;;;;5.30;3.73;;;;;;;;;;6127813;23;20953;-86
2024/04/08 02:55:49;;;;;;;5.57;3.40;;;;;;;;;;6127226;23;20403;-88
2024/04/08 02:58:19;;;;;;;6.67;3.90;;;;;;;;;;6129384;23;20407;-88
2024/04/08 03:00:57;;;;;;;4.67;4.17;;;;;;;;;;6128874;23;20407;-90
2024/04/08 03:03:33;;;;;;;6.40;3.93;;;;;;;;;;6131693;23;20421;-86
2024/04/08 03:06:23;;;;;;;5.70;4.03;;;;;;;;;;6140741;23;20451;-87
2024/04/08 03:09:14;;;;;;;;;;;;;;;;;;;;;
2024/04/08 03:11:57;;;;;;;6.67;4.03;;;;;;;;;;6171433;23;20426;-86
2024/04/08 03:14:43;;;;;;;6.73;4.83;;;;;;;;;;6134412;23;20426;-89
2024/04/08 03:17:10;;;;;;;5.40;4.33;;;;;;;;;;6133478;23;20414;-88
2024/04/08 03:19:53;;;;;;;8.07;4.17;;;;;;;;;;6134695;23;20405;-85
2024/04/08 03:22:23;;;;;;;7.97;4.60;;;;;;;;;;6133380;23;20426;-86
2024/04/08 03:25:11;;;;;;;5.77;4.33;;;;;;;;;;6162127;23;20452;-88
2024/04/08 03:27:45;;;;;;;5.57;4.30;;;;;;;;;;6128486;23;20406;-87
2024/04/08 03:30:41;;;;;;;5.10;4.10;;;;;;;;;;6156376;23;20414;-88
2024/04/08 03:33:08;;;;;;;5.50;4.43;;;;;;;;;;6096699;23;20413;-89
2024/04/08 03:35:37;;;;;;;7.90;4.90;;;;;;;;;;6131891;23;20464;-86
2024/04/08 03:38:13;;;;;;;6.40;4.13;;;;;;;;;;6131738;23;20419;-88
2024/04/08 03:40:51;;;;;;;7.90;4.50;;;;;;;;;;6132369;23;20410;-87
2024/04/08 03:43:27;;;;;;;8.13;4.63;;;;;;;;;;6132062;23;20416;-86
2024/04/08 03:46:00;;;;;;;4.93;4.00;;;;;;;;;;6132561;23;20441;-87
2024/04/08 03:48:35;;;;;;;4.93;4.10;;;;;;;;;;6133299;23;20416;-88
2024/04/08 03:51:29;;;;;;;6.70;4.80;;;;;;;;;;6135073;23;20939;-87
2024/04/08 03:57:08;;;;;;;6.20;5.00;;;;;;;;;;6157427;23;20840;-86
2024/04/08 03:59:59;;;;;;;7.23;4.80;;;;;;;;;;6135690;23;20398;-85
2024/04/08 04:02:35;;;;;;;6.50;4.37;;;;;;;;;;6135848;23;20990;-87
2024/04/08 04:05:07;;;;;;;6.10;4.67;;;;;;;;;;6136844;23;20445;-85
2024/04/08 04:07:42;;;;;;;8.40;5.30;;;;;;;;;;6136550;23;20398;-88
2024/04/08 04:10:14;;;;;;;6.87;5.40;;;;;;;;;;6149375;23;20417;-91
2024/04/08 04:12:47;;;;;;;6.67;5.40;;;;;;;;;;6137903;23;20431;-88
2024/04/08 04:15:21;;;;;;;6.87;6.20;;;;;;;;;;6147061;23;20839;-86
2024/04/08 04:17:54;;;;;;;7.10;6.40;;;;;;;;;;6149382;23;20402;-85
2024/04/08 04:20:40;;;;;;;6.37;5.53;;;;;;;;;;6156356;23;20473;-91
2024/04/08 04:23:07;;;;;;;8.90;6.20;;;;;;;;;;6155866;23;20465;-90
2024/04/08 04:25:41;;;;;;;8.30;5.30;;;;;;;;;;6143298;23;20449;-87
2024/04/08 04:28:15;;;;;;;6.70;5.30;;;;;;;;;;6138419;23;20459;-89
2024/04/08 04:30:57;;;;;;;7.67;5.63;;;;;;;;;;6136332;23;20401;-86
2024/04/08 04:34:02;;;;;;;6.67;5.20;;;;;;;;;;6137040;23;20408;-86
2024/04/08 04:36:45;;;;;;;8.50;5.97;;;;;;;;;;6133190;23;20402;-88
2024/04/08 04:39:16;;;;;;;10.97;6.13;;;;;;;;;;6154201;23;20504;-90
2024/04/08 04:41:46;;;;;;;7.10;6.20;;;;;;;;;;6145354;23;20425;-89
2024/04/08 04:44:13;;;;;;;7.10;6.40;;;;;;;;;;6132356;23;21415;-87
2024/04/08 04:47:05;;;;;;;11.00;6.77;;;;;;;;;;6131379;23;20889;-87
2024/04/08 04:49:32;;;;;;;8.03;5.83;;;;;;;;;;6133599;23;20410;-88
2024/04/08 04:52:18;;;;;;;9.70;6.17;;;;;;;;;;6160442;23;20432;-88
2024/04/08 04:55:03;;;;;;;11.00;5.93;;;;;;;;;;6138773;23;20405;-87
2024/04/08 04:57:42;;;;;;;10.57;6.23;;;;;;;;;;6136409;23;20792;-89
2024/04/08 05:00:31;;;;;;;8.60;6.37;;;;;;;;;;6135758;23;20406;-89
2024/04/08 05:03:04;;;;;;;9.37;6.60;;;;;;;;;;6137555;23;20407;-87
2024/04/08 05:06:16;;;;;;;8.97;6.20;;;;;;;;;;6140392;23;20792;-89
2024/04/08 05:12:02;;;;;;;9.30;6.20;;;;;;;;;;6160816;23;20430;-89
2024/04/08 05:14:36;;;;;;;9.20;6.37;;;;;;;;;;6139963;23;20400;-88
2024/04/08 05:17:30;;;;;;;9.27;5.83;;;;;;;;;;6132818;23;20403;-89
2024/04/08 05:20:15;;;;;;;8.40;6.57;;;;;;;;;;6129175;23;20407;-87
2024/04/08 05:22:58;;;;;;;7.23;5.97;;;;;;;;;;6108751;23;20433;-87
2024/04/08 05:25:40;;;;;;;7.63;5.70;;;;;;;;;;6125320;23;20434;-89
2024/04/08 05:30:55;;;;;;;6.20;5.37;;;;;;;;;;6146340;23;20682;-87
2024/04/08 05:33:31;;;;;;;10.97;6.63;;;;;;;;;;6132391;23;20453;-87
2024/04/08 05:36:05;;;;;;;9.23;6.50;;;;;;;;;;6140778;23;20505;-89
2024/04/08 05:38:50;;;;;;;7.77;5.80;;;;;;;;;;6168230;23;20405;-89
2024/04/08 05:41:20;;;;;;;7.20;6.30;;;;;;;;;;6134540;23;20430;-90
2024/04/08 05:44:16;;;;;;;8.57;6.30;;;;;;;;;;6157371;23;20440;-89
2024/04/08 05:47:13;;;;;;;7.37;6.67;;;;;;;;;;6137341;23;20410;-87
2024/04/08 05:49:57;;;;;;;9.60;6.90;;;;;;;;;;6132986;23;20438;-88
2024/04/08 05:52:58;;;;;;;;;;;;;;;;;;;;;
2024/04/08 05:55:49;;;;;;;8.83;6.83;;;;;;;;;;6184644;23;20417;-90
2024/04/08 05:58:37;;;;;;;9.07;6.63;;;;;;;;;;6131255;23;20464;-86
2024/04/08 06:01:43;;;;;;;10.57;6.83;;;;;;;;;;6089909;23;20418;-90
2024/04/08 06:08:08;;;;;;;7.30;6.50;;;;;;;;;;6032601;23;20410;-85
2024/04/08 06:11:16;;;;;;;8.60;7.00;;;;;;;;;;6039303;23;20911;-87
2024/04/08 06:14:44;;;;;;;9.73;6.27;;;;;;;;;;6063007;23;20412;-86
2024/04/08 06:17:34;;;;;;;8.63;6.77;;;;;;;;;;6015523;23;20528;-87
2024/04/08 06:20:29;;;;;;;7.67;6.47;;;;;;;;;;6133278;23;20755;-89
2024/04/08 06:23:31;;;;;;;8.97;6.43;;;;;;;;;;6127250;23;20477;-86
2024/04/08 06:26:07;;;;;;;10.07;6.57;;;;;;;;;;6126112;23;20446;-87
2024/04/08 06:35:17;;;;;;;9.03;5.67;;;;;;;;;;6181023;23;20943;-87
2024/04/08 06:41:03;;;;;;;7.80;6.43;;;;;;;;;;6130639;23;20845;-88
2024/04/08 06:44:08;;;;;;;7.20;6.50;;;;;;;;;;6126698;23;20407;-89
2024/04/08 06:46:50;;;;;;;7.53;6.83;;;;;;;;;;6127092;23;20451;-87
2024/04/08 06:49:40;;;;;;;;;;;;;;;;;;;;;
2024/04/08 06:58:47;;;;;;;8.10;6.17;;;;;;;;;;6129747;23;20487;-88
2024/04/08 07:01:25;;;;;;;9.70;5.87;;;;;;;;;;6127435;23;20415;-86
2024/04/08 07:04:23;;;;;;;;;;;;;;;;;;;;;
2024/04/08 07:07:24;;;;;;;;;;;;;;;;;;;;;
2024/04/08 07:10:12;;;;;;;13.73;7.07;;;;;;;;;;6125809;23;20778;-86
2024/04/08 07:16:25;;;;;;;11.00;7.33;;;;;;;;;;6124275;23;20489;-87
2024/04/08 07:19:04;;;;;;;10.73;6.60;;;;;;;;;;6147230;23;20413;-87
2024/04/08 07:28:01;;;;;;;8.20;6.07;;;;;;;;;;6043046;23;20416;-87
2024/04/08 07:38:15;;;;;;;6.97;4.80;;;;;;;;;;6155674;23;20396;-88
2024/04/08 07:41:32;;;;;;;8.47;6.30;;;;;;;;;;6134948;23;20411;-88
2024/04/08 07:44:06;;;;;;;7.63;5.53;;;;;;;;;;6105793;23;20448;-89
2024/04/08 07:47:05;;;;;;;10.27;6.40;;;;;;;;;;6132059;23;20446;-88
2024/04/08 07:49:55;;;;;;;10.20;6.90;;;;;;;;;;6129315;23;20394;-87
2024/04/08 07:52:48;;;;;;;7.43;6.50;;;;;;;;;;6116990;23;20419;-88
2024/04/08 07:55:36;;;;;;;9.10;6.70;;;;;;;;;;6121706;23;21213;-87
2024/04/08 07:59:02;;;;;;;7.97;6.60;;;;;;;;;;6163908;23;20393;-90
2024/04/08 08:02:25;;;;;;;9.07;6.13;;;;;;;;;;6105403;23;20487;-87
2024/04/08 08:05:32;;;;;;;9.77;7.20;;;;;;;;;;6156926;23;20450;-88
2024/04/08 08:09:09;;;;;;;9.40;7.80;;;;;;;;;;6181346;23;20418;-87
2024/04/08 08:11:49;;;;;;;10.70;8.03;;;;;;;;;;6142908;23;20440;-88
2024/04/08 08:14:33;;;;;;;9.17;7.70;;;;;;;;;;6117993;23;20402;-87
2024/04/08 08:20:39;;;;;;;10.10;8.50;;;;;;;;;;6185603;23;20393;-88
2024/04/08 08:23:24;;;;;;;12.73;8.73;;;;;;;;;;6049169;23;20417;-86
2024/04/08 08:26:12;;;;;;;14.43;9.03;;;;;;;;;;6179215;23;21486;-90
2024/04/08 08:28:54;;;;;;;11.83;8.37;;;;;;;;;;6179935;23;20409;-91
2024/04/08 08:31:45;;;;;;;;;;;;;;;;;;;;;
2024/04/08 08:37:47;;;;;;;11.13;9.07;;;;;;;;;;6083595;23;20484;-90
2024/04/08 08:40:40;;;;;;;15.67;10.83;;;;;;;;;;6169328;23;20421;-88
2024/04/08 08:47:01;;;;;;;12.60;9.83;;;;;;;;;;6185433;23;20441;-88
2024/04/08 08:53:21;;;;;;;;;;;;;;;;;;;;;
2024/04/08 09:06:15;;;;;;;14.97;10.47;;;;;;;;;;6180646;23;20444;-86
2024/04/08 09:08:46;;;;;;;11.67;10.43;;;;;;;;;;6137092;23;20409;-86
2024/04/08 09:11:55;;;;;;;13.13;11.83;;;;;;;;;;6127911;23;20491;-85
2024/04/08 09:14:54;;;;;;;10.60;9.27;;;;;;;;;;6089380;23;20411;-89
2024/04/08 09:17:26;;;;;;;12.03;9.80;;;;;;;;;;6043083;23;20468;-89
2024/04/08 09:20:11;;;;;;;10.37;9.27;;;;;;;;;;6091928;23;20459;-90
2024/04/08 09:23:16;;;;;;;11.53;8.50;;;;;;;;;;6089452;23;20458;-87
2024/04/08 09:26:13;;;;;;;9.93;8.97;;;;;;;;;;6080308;23;20447;-87
2024/04/08 09:32:10;;;;;;;10.43;9.43;;;;;;;;;;6094300;23;20420;-86
2024/04/08 09:38:05;;;;;;;12.33;9.60;;;;;;;;;;6124256;23;21368;-87
2024/04/08 09:47:31;;;;;;;11.90;9.07;;;;;;;;;;6129647;23;20402;-87
2024/04/08 09:50:12;;;;;;;13.33;9.70;;;;;;;;;;6142122;23;20398;-85
2024/04/08 09:55:32;;;;;;;10.20;9.10;;;;;;;;;;6190312;23;20557;-88
2024/04/08 09:58:02;;;;;;;10.80;9.07;;;;;;;;;;6136177;23;20402;-86
2024/04/08 10:00:39;;;;;;;9.70;8.13;;;;;;;;;;6142584;23;20391;-87
2024/04/08 10:03:12;;;;;;;13.20;9.10;;;;;;;;;;6137710;23;20398;-90
2024/04/08 10:05:51;;;;;;;10.53;8.77;;;;;;;;;;6140107;23;20442;-85
2024/04/08 10:08:50;;;;;;;10.47;8.60;;;;;;;;;;6145273;23;20416;-87
2024/04/08 10:11:22;;;;;;;9.70;8.70;;;;;;;;;;6133958;23;20430;-87
2024/04/08 10:13:58;;;;;;;12.03;9.30;;;;;;;;;;6171051;23;20390;-85
2024/04/08 10:16:34;;;;;;;13.07;9.57;;;;;;;;;;6172305;23;20398;-86
2024/04/08 10:19:09;;;;;;;10.30;8.90;;;;;;;;;;6177443;23;20413;-90
2024/04/08 10:21:44;;;;;;;8.13;7.33;;;;;;;;;;6157093;23;20489;-90
2024/04/08 10:24:31;;;;;;;9.30;7.63;;;;;;;;;;6111068;23;20404;-88
2024/04/08 10:27:16;;;;;;;11.57;8.50;;;;;;;;;;6070727;23;20411;-86
2024/04/08 10:30:14;;;;;;;7.50;5.70;;;;;;;;;;6102658;23;20726;-87
2024/04/08 10:32:41;;;;;;;8.63;7.00;;;;;;;;;;6080171;23;20490;-86
2024/04/08 10:35:16;;;;;;;10.57;7.33;;;;;;;;;;6131533;23;20407;-86
2024/04/08 10:37:42;;;;;;;7.43;6.47;;;;;;;;;;6134230;23;20402;-89
2024/04/08 10:40:26;;;;;;;8.50;7.03;;;;;;;;;;6136706;23;20433;-90
2024/04/08 10:43:00;;;;;;;9.70;7.17;;;;;;;;;;6142708;23;20422;-86
2024/04/08 10:46:14;;;;;;;9.90;7.63;;;;;;;;;;6140037;23;20452;-87
2024/04/08 10:48:59;;;;;;;9.87;7.53;;;;;;;;;;6165663;23;20456;-88
2024/04/08 10:51:38;;;;;;;8.77;6.90;;;;;;;;;;6138363;23;20980;-86
2024/04/08 10:54:13;;;;;;;7.43;6.73;;;;;;;;;;6142934;23;20406;-88
2024/04/08 10:56:39;;;;;;;9.30;7.70;;;;;;;;;;6141523;23;20414;-87
2024/04/08 10:59:57;;;;;;;11.70;7.07;;;;;;;;;;6140690;23;20414;-87
2024/04/08 11:02:26;;;;;;;11.60;7.17;;;;;;;;;;6184546;23;20428;-88
2024/04/08 11:08:00;;;;;;;9.70;7.50;;;;;;;;;;6153601;23;20410;-88
2024/04/08 11:10:35;;;;;;;10.50;7.47;;;;;;;;;;6142545;23;20417;-88
2024/04/08 11:13:26;;;;;;;8.80;6.87;;;;;;;;;;6143684;23;20408;-88
2024/04/08 11:15:56;;;;;;;7.30;6.50;;;;;;;;;;6165550;23;20446;-89
2024/04/08 11:18:36;;;;;;;9.53;6.70;;;;;;;;;;6163501;23;20428;-90
2024/04/08 11:21:26;;;;;;;10.50;6.33;;;;;;;;;;6140175;23;20433;-86
2024/04/08 11:24:04;;;;;;;8.53;6.30;;;;;;;;;;6143728;23;20398;-87
2024/04/08 11:26:50;;;;;;;12.10;6.13;;;;;;;;;;6140866;23;20982;-88
2024/04/08 11:29:30;;;;;;;8.30;6.27;;;;;;;;;;6137617;23;20410;-86
2024/04/08 11:32:00;;;;;;;13.63;6.97;;;;;;;;;;6139053;23;20426;-86
2024/04/08 11:34:52;;;;;;;7.57;5.40;;;;;;;;;;6143140;23;20406;-87
2024/04/08 11:40:34;;;;;;;7.73;5.27;;;;;;;;;;6198673;23;20388;-88
2024/04/08 11:43:11;;;;;;;9.80;5.40;;;;;;;;;;6135288;23;20446;-86
2024/04/08 11:45:43;;;;;;;6.40;5.53;;;;;;;;;;6141919;23;20437;-89
2024/04/08 11:48:31;;;;;;;7.20;5.60;;;;;;;;;;6158751;23;20416;-87
2024/04/08 11:51:13;;;;;;;5.23;4.70;;;;;;;;;;6133076;23;20422;-86
2024/04/08 11:54:24;;;;;;;8.60;5.30;;;;;;;;;;6162170;23;20885;-90
2024/04/08 11:57:12;;;;;;;6.10;5.20;;;;;;;;;;6166492;23;20400;-86
2024/04/08 11:59:45;;;;;;;8.93;5.73;;;;;;;;;;6162867;23;20398;-87
2024/04/08 12:02:18;;;;;;;5.97;5.17;;;;;;;;;;6141080;23;20418;-87
2024/04/08 12:05:07;;;;;;;8.10;5.10;;;;;;;;;;6168885;23;20560;-86
2024/04/08 12:10:58;;;;;;;6.80;5.10;;;;;;;;;;6175728;23;20394;-85
2024/04/08 12:13:34;;;;;;;6.60;4.90;;;;;;;;;;6127380;23;20432;-90
2024/04/08 12:16:10;;;;;;;6.87;4.70;;;;;;;;;;6142778;23;20439;-88
2024/04/08 12:19:28;;;;;;;;;;;;;;;;;;;;;
2024/04/08 12:22:06;;;;;;;6.53;4.80;;;;;;;;;;6177904;23;20414;-87
2024/04/08 12:24:36;;;;;;;6.60;4.40;;;;;;;;;;6160286;23;20446;-89
2024/04/08 12:27:07;;;;;;;5.60;4.47;;;;;;;;;;6184089;23;20536;-91
2024/04/08 12:29:45;;;;;;;5.60;3.93;;;;;;;;;;6175793;23;20472;-88
2024/04/08 12:34:56;;;;;;;10.00;4.53;;;;;;;;;;6183356;23;20509;-90
2024/04/08 12:37:30;;;;;;;5.63;3.63;;;;;;;;;;6159564;23;20469;-89
2024/04/08 12:40:45;;;;;;;6.37;4.40;;;;;;;;;;6118592;23;20408;-90
2024/04/08 12:43:44;;;;;;;8.03;3.90;;;;;;;;;;6142307;23;20466;-87
2024/04/08 12:46:28;;;;;;;4.40;3.83;;;;;;;;;;6156837;23;20442;-89
2024/04/08 12:49:08;;;;;;;5.50;3.83;;;;;;;;;;6124691;23;20472;-87
2024/04/08 12:52:02;;;;;;;4.67;3.67;;;;;;;;;;6152784;23;20494;-84
2024/04/08 12:54:36;;;;;;;4.63;3.43;;;;;;;;;;6127448;23;20409;-90
2024/04/08 12:57:30;;;;;;;5.63;3.23;;;;;;;;;;6139685;23;20466;-89
2024/04/08 13:00:49;;;;;;;;;;;;;;;;;;;;;
2024/04/08 13:03:35;;;;;;;5.13;3.60;;;;;;;;;;6174022;23;20462;-89
2024/04/08 13:06:38;;;;;;;4.33;3.50;;;;;;;;;;6130966;23;20448;-90
2024/04/08 13:09:24;;;;;;;4.83;3.67;;;;;;;;;;6122440;23;20459;-89
2024/04/08 13:12:20;;;;;;;7.00;4.07;;;;;;;;;;6129636;23;20525;-85
2024/04/08 13:15:02;;;;;;;6.43;3.63;;;;;;;;;;6103478;23;20394;-88
2024/04/08 13:17:36;;;;;;;4.80;3.27;;;;;;;;;;6125952;23;20406;-89
2024/04/08 13:20:16;;;;;;;8.57;4.40;;;;;;;;;;6154041;23;20539;-90
2024/04/08 13:23:18;;;;;;;6.70;4.53;;;;;;;;;;6148867;23;20526;-89
2024/04/08 13:25:55;;;;;;;5.43;4.20;;;;;;;;;;6128966;23;20497;-89
2024/04/08 13:28:49;;;;;;;5.87;4.40;;;;;;;;;;6130147;23;20511;-89
2024/04/08 13:31:24;;;;;;;5.60;5.00;;;;;;;;;;6153489;23;20494;-89
2024/04/08 13:34:06;;;;;;;5.43;4.20;;;;;;;;;;6128646;23;20551;-92
2024/04/08 13:37:05;;;;;;;6.83;4.33;;;;;;;;;;6148823;23;20387;-87
2024/04/08 13:40:07;;;;;;;8.13;4.20;;;;;;;;;;6100814;23;20450;-91
2024/04/08 13:46:19;;;;;;;6.10;4.47;;;;;;;;;;6144631;23;20450;-86
2024/04/08 13:49:10;;;;;;;7.60;4.37;;;;;;;;;;6107202;23;20410;-87
2024/04/08 13:52:06;;;;;;;;;;;;;;;;;;;;;
2024/04/08 13:57:51;;;;;;;6.03;5.20;;;;;;;;;;6112508;23;20394;-85
2024/04/08 14:01:16;;;;;;;;;;;;;;;;;;;;;
2024/04/08 14:04:12;;;;;;;5.50;4.30;;;;;;;;;;6151922;23;20399;-87
2024/04/08 14:06:42;;;;;;;6.60;4.87;;;;;;;;;;6117130;23;20457;-87
2024/04/08 14:09:11;;;;;;;5.80;4.10;;;;;;;;;;6108025;23;20400;-85
2024/04/08 14:11:54;;;;;;;6.00;5.07;;;;;;;;;;6100161;23;20423;-88
2024/04/08 14:14:42;;;;;;;7.20;4.37;;;;;;;;;;6107918;23;20407;-87
2024/04/08 14:17:40;;;;;;;7.70;4.33;;;;;;;;;;6109221;23;20403;-84
2024/04/08 14:20:12;;;;;;;7.27;4.97;;;;;;;;;;6112341;23;20421;-88
2024/04/08 14:22:49;;;;;;;4.90;4.40;;;;;;;;;;6121812;23;20466;-85
2024/04/08 14:25:49;;;;;;;6.40;4.17;;;;;;;;;;6138251;23;20450;-89
2024/04/08 14:28:39;;;;;;;5.00;3.90;;;;;;;;;;6153980;23;20475;-88
2024/04/08 14:31:46;;;;;;;5.80;4.33;;;;;;;;;;6174244;23;20684;-87
2024/04/08 14:37:48;;;;;;;5.47;3.67;;;;;;;;;;6131769;23;20417;-85
2024/04/08 14:40:46;;;;;;;;;;;;;;;;;;;;;
2024/04/08 14:43:33;;;;;;;6.13;3.60;;;;;;;;;;6154172;23;20387;-86
2024/04/08 14:46:27;;;;;;;8.93;4.00;;;;;;;;;;6133980;23;20456;-88
2024/04/08 14:49:15;;;;;;;3.93;3.00;;;;;;;;;;6129704;23;20406;-89
2024/04/08 14:51:57;;;;;;;6.80;3.37;;;;;;;;;;6160159;23;20429;-86
2024/04/08 14:54:32;;;;;;;6.73;3.33;;;;;;;;;;6132988;23;20395;-84
2024/04/08 14:57:26;;;;;;;4.10;2.73;;;;;;;;;;6135274;23;20399;-88
2024/04/08 15:00:16;;;;;;;7.30;3.60;;;;;;;;;;6154973;23;20407;-87
2024/04/08 15:02:51;;;;;;;4.20;2.47;;;;;;;;;;6135343;23;20426;-89
2024/04/08 15:05:51;;;;;;;8.97;2.97;;;;;;;;;;6134158;23;20430;-87
2024/04/08 15:08:52;;;;;;;;;;;;;;;;;;;;;
2024/04/08 15:17:44;;;;;;;6.10;3.20;;;;;;;;;;6161122;23;20422;-85
2024/04/08 15:20:50;;;;;;;5.60;2.40;;;;;;;;;;6154607;23;20410;-85
2024/04/08 15:27:07;;;;;;;4.47;2.60;;;;;;;;;;6162793;23;20438;-87
2024/04/08 15:29:33;;;;;;;4.20;2.60;;;;;;;;;;6133898;23;20403;-85
2024/04/08 15:32:33;;;;;;;;;;;;;;;;;;;;;
2024/04/08 15:35:18;;;;;;;4.30;2.50;;;;;;;;;;6159023;23;20415;-83
2024/04/08 15:38:16;;;;;;;4.63;2.10;;;;;;;;;;6134760;23;20403;-86
2024/04/08 15:41:03;;;;;;;5.60;2.40;;;;;;;;;;6137359;23;20407;-85
2024/04/08 15:43:48;;;;;;;;;;;;;;;;;;;;;
2024/04/08 15:46:55;;;;;;;6.07;3.03;;;;;;;;;;6161314;23;20465;-87
2024/04/08 15:49:41;;;;;;;5.90;1.90;;;;;;;;;;6130882;23;20398;-89
2024/04/08 15:52:17;;;;;;;6.07;2.30;;;;;;;;;;6148058;23;20407;-85
2024/04/08 15:55:04;;;;;;;3.87;2.17;;;;;;;;;;6165248;23;20401;-89
2024/04/08 16:00:17;;;;;;;6.87;2.90;;;;;;;;;;6186682;23;20440;-91
2024/04/08 16:02:55;;;;;;;4.30;2.80;;;;;;;;;;6158976;23;20490;-86
2024/04/08 16:05:56;;;;;;;4.77;2.90;;;;;;;;;;6147712;23;20435;-89
2024/04/08 16:08:50;;;;;;;6.17;3.00;;;;;;;;;;6129815;23;20474;-85
2024/04/08 16:11:45;;;;;;;7.30;2.80;;;;;;;;;;6148407;23;20419;-89
2024/04/08 16:14:31;;;;;;;5.80;2.10;;;;;;;;;;6130337;23;20470;-89
2024/04/08 16:17:07;;;;;;;8.70;2.13;;;;;;;;;;6153189;23;20466;-89
2024/04/08 16:19:43;;;;;;;3.97;2.00;;;;;;;;;;6153984;23;20454;-89
2024/04/08 16:22:22;;;;;;;6.73;2.23;;;;;;;;;;6129089;23;21012;-87
2024/04/08 16:25:03;;;;;;;10.33;2.67;;;;;;;;;;6110977;23;20458;-88
2024/04/08 16:27:38;;;;;;;6.43;2.47;;;;;;;;;;6103733;23;20470;-90
2024/04/08 16:30:18;;;;;;;6.50;2.03;;;;;;;;;;6123652;23;20428;-89
2024/04/08 16:32:51;;;;;;;6.20;2.23;;;;;;;;;;6092814;23;20407;-88
2024/04/08 16:35:21;;;;;;;5.30;2.10;;;;;;;;;;6127038;23;20718;-89
2024/04/08 16:38:00;;;;;;;4.20;2.40;;;;;;;;;;6052053;23;20398;-88
2024/04/08 16:44:39;;;;;;;10.10;2.50;;;;;;;;;;6077833;23;20370;-87
2024/04/08 16:47:06;;;;;;;5.03;2.20;;;;;;;;;;6041070;23;20504;-86
2024/04/08 16:49:58;;;;;;;5.90;2.67;;;;;;;;;;6041800;23;20500;-90
2024/04/08 16:52:39;;;;;;;7.97;2.40;;;;;;;;;;6032334;23;20529;-90
2024/04/08 16:55:20;;;;;;;3.83;3.07;;;;;;;;;;6042890;23;20472;-89
2024/04/08 17:01:12;;;;;;;7.27;2.00;;;;;;;;;;6131892;23;20474;-88
2024/04/08 17:07:06;;;;;;;5.67;2.00;;;;;;;;;;6078686;23;20448;-86
2024/04/08 17:09:58;;;;;;;4.87;2.43;;;;;;;;;;6051331;23;20399;-86
2024/04/08 17:12:38;;;;;;;6.27;2.83;;;;;;;;;;6125658;23;20541;-89
2024/04/08 17:15:28;;;;;;;6.63;2.30;;;;;;;;;;6123783;23;20417;-88
2024/04/08 17:18:27;;;;;;;5.10;2.20;;;;;;;;;;6112334;23;20408;-87
2024/04/08 17:27:37;;;;;;;10.33;2.67;;;;;;;;;;6119291;23;20446;-84
2024/04/08 17:30:16;;;;;;;5.83;2.80;;;;;;;;;;6106143;23;20417;-87
2024/04/08 17:32:47;;;;;;;8.70;2.50;;;;;;;;;;6109072;23;20736;-87
2024/04/08 17:35:20;;;;;;;11.00;3.00;;;;;;;;;;6111157;23;20437;-85
2024/04/08 17:38:04;;;;;;;9.03;3.57;;;;;;;;;;6111034;23;20869;-88
2024/04/08 17:40:42;;;;;;;8.53;3.53;;;;;;;;;;6103284;23;20403;-89
2024/04/08 17:46:21;;;;;;;5.90;2.63;;;;;;;;;;6134146;23;20450;-85
2024/04/08 17:52:19;;;;;;;10.03;3.20;;;;;;;;;;6114856;23;20430;-85
2024/04/08 17:55:05;;;;;;;7.83;2.80;;;;;;;;;;6106164;23;20434;-86
2024/04/08 17:58:03;;;;;;;8.93;2.73;;;;;;;;;;6095844;23;20491;-87
2024/04/08 18:06:41;;;;;;;6.63;3.50;;;;;;;;;;6165173;23;20443;-87
2024/04/08 18:16:05;;;;;;;9.50;2.73;;;;;;;;;;5965661;24;20408;-88
2024/04/08 18:18:51;;;;;;;;;;;;;;;;;;;;;
2024/04/08 18:21:43;;;;;;;6.30;2.57;;;;;;;;;;6138625;23;20423;-89
2024/04/08 18:24:48;;;;;;;10.57;3.20;;;;;;;;;;6115018;23;20405;-86
2024/04/08 18:27:21;;;;;;;8.47;3.90;;;;;;;;;;6094041;23;20700;-88
2024/04/08 18:30:13;;;;;;;7.77;3.90;;;;;;;;;;6091289;23;20473;-89
2024/04/08 18:32:56;;;;;;;12.47;5.30;;;;;;;;;;6095051;23;20424;-86
2024/04/08 18:39:05;;;;;;;13.23;8.60;;;;;;;;;;6132980;23;20391;-86
2024/04/08 18:41:41;;;;;;;12.73;5.30;;;;;;;;;;5970659;23;20418;-89
2024/04/08 18:44:46;;;;;;;8.77;3.90;;;;;;;;;;6112891;23;20716;-89
2024/04/08 18:50:53;;;;;;;8.00;3.83;;;;;;;;;;6095474;23;20950;-85
2024/04/08 18:56:45;;;;;;;7.90;3.37;;;;;;;;;;6130884;23;20415;-87
2024/04/08 18:59:20;;;;;;;6.50;3.20;;;;;;;;;;6113724;23;20407;-88
2024/04/08 19:04:55;;;;;;;9.43;3.90;;;;;;;;;;6200406;23;20449;-87
2024/04/08 19:07:43;;;;;;;7.20;3.50;;;;;;;;;;6165657;23;20453;-86
2024/04/08 19:10:23;;;;;;;8.10;3.50;;;;;;;;;;6164319;23;20403;-88
2024/04/08 19:13:06;;;;;;;;;;;;;;;;;;;;;
2024/04/08 19:15:48;;;;;;;10.33;3.97;;;;;;;;;;6170326;23;20410;-87
2024/04/08 19:18:22;;;;;;;10.00;4.50;;;;;;;;;;6156578;23;20466;-90
2024/04/08 19:20:54;;;;;;;9.87;4.50;;;;;;;;;;6156045;23;20485;-89
2024/04/08 19:23:47;;;;;;;11.20;5.73;;;;;;;;;;6148245;23;20406;-86
2024/04/08 19:26:16;;;;;;;15.03;5.70;;;;;;;;;;6144713;23;20441;-85
2024/04/08 19:28:46;;;;;;;19.70;5.40;;;;;;;;;;6167710;23;20486;-89
2024/04/08 19:34:24;;;;;;;9.13;5.20;;;;;;;;;;6194106;23;20446;-87